Time;durP1;ratioP1;P1;durP2;ratioP2;P2;SDS_P1;SDS_P2;PMS_P1;PMS_P2;Temp;Humidity;BMP_temperature;BMP_pressure;BME280_temperature;BME280_humidity;BME280_pressure;Samples;Min_cycle;Max_cycle;Signal;HPM_P1;HPM_P2
2022/12/05 00:04:25;;;;;;;;;;;;;;;;;;;;;
2022/12/05 00:07:46;;;;;;;;;;;;;;;;;;;;;
2022/12/05 00:34:34;;;;;;;16.07;14.27;;;;;;;;;;5705845;22;20493;-90
2022/12/05 00:37:30;;;;;;;;;;;;;;;;;;;;;
2022/12/05 00:40:34;;;;;;;;;;;;;;;;;;;;;
2022/12/05 00:46:12;;;;;;;;;;;;;;;;;;;;;
2022/12/05 01:01:33;;;;;;;;;;;;;;;;;;;;;
2022/12/05 01:09:18;;;;;;;24.38;18.50;;;;;;;;;;5429993;22;20501;-95
2022/12/05 01:15:19;;;;;;;26.70;17.63;;;;;;;;;;5072923;28;20453;-95
2022/12/05 01:18:19;;;;;;;27.15;18.05;;;;;;;;;;5040461;28;20446;-93
2022/12/05 01:21:17;;;;;;;;;;;;;;;;;;;;;
2022/12/05 01:40:10;;;;;;;;;;;;;;;;;;;;;
2022/12/05 01:50:31;;;;;;;;;;;;;;;;;;;;;
2022/12/05 01:52:57;;;;;;;;;;;;;;;;;;;;;
2022/12/05 02:22:53;;;;;;;24.80;18.17;;;;;;;;;;4963741;28;20748;-93
2022/12/05 02:38:50;;;;;;;24.13;17.58;;;;;;;;;;4839907;29;20469;-91
2022/12/05 02:41:55;;;;;;;20.95;15.98;;;;;;;;;;4784291;29;20435;-91
2022/12/05 02:44:35;;;;;;;21.35;16.10;;;;;;;;;;4770012;30;20518;-93
2022/12/05 02:47:37;;;;;;;;;;;;;;;;;;;;;
2022/12/05 02:53:54;;;;;;;19.48;15.15;;;;;;;;;;4781743;29;20472;-93
2022/12/05 02:56:56;;;;;;;20.75;16.05;;;;;;;;;;4715779;30;20591;-93
2022/12/05 02:59:48;;;;;;;18.27;15.32;;;;;;;;;;4776570;29;20508;-95
2022/12/05 03:03:17;;;;;;;;;;;;;;;;;;;;;
2022/12/05 03:06:12;;;;;;;;;;;;;;;;;;;;;
2022/12/05 03:09:23;;;;;;;19.88;15.60;;;;;;;;;;4791010;29;20429;-93
2022/12/05 03:15:38;;;;;;;;;;;;;;;;;;;;;
2022/12/05 03:18:49;;;;;;;;;;;;;;;;;;;;;
2022/12/05 03:28:11;;;;;;;;;;;;;;;;;;;;;
2022/12/05 03:37:32;;;;;;;;;;;;;;;;;;;;;
2022/12/05 03:55:38;;;;;;;;;;;;;;;;;;;;;
2022/12/05 04:01:55;;;;;;;;;;;;;;;;;;;;;
2022/12/05 04:07:57;;;;;;;17.17;14.52;;;;;;;;;;4986198;28;20448;-91
2022/12/05 04:10:58;;;;;;;19.38;14.93;;;;;;;;;;5056059;28;20971;-91
2022/12/05 04:13:48;;;;;;;16.38;13.93;;;;;;;;;;5065523;28;20427;-91
2022/12/05 04:23:22;;;;;;;;;;;;;;;;;;;;;
2022/12/05 04:29:37;;;;;;;17.50;14.45;;;;;;;;;;4974167;28;20454;-90
2022/12/05 04:36:36;;;;;;;;;;;;;;;;;;;;;
2022/12/05 04:42:44;;;;;;;28.98;19.17;;;;;;;;;;4824129;29;20480;-90
2022/12/05 04:45:33;;;;;;;20.20;14.88;;;;;;;;;;4820564;29;20425;-91
2022/12/05 04:48:27;;;;;;;21.88;15.20;;;;;;;;;;4823110;29;20407;-91
2022/12/05 04:51:14;;;;;;;24.52;16.65;;;;;;;;;;4829046;29;20458;-91
2022/12/05 04:54:09;;;;;;;22.30;16.52;;;;;;;;;;5168016;22;20557;-91
2022/12/05 04:56:39;;;;;;;19.40;15.23;;;;;;;;;;5094936;28;20384;-90
2022/12/05 04:59:20;;;;;;;;;;;;;;;;;;;;;
2022/12/05 05:10:09;;;;;;;18.33;14.02;;;;;;;;;;5581345;22;20933;-93
2022/12/05 05:12:35;;;;;;;18.50;14.13;;;;;;;;;;5094943;28;20420;-91
2022/12/05 05:15:05;;;;;;;19.35;14.70;;;;;;;;;;5095262;28;20394;-90
2022/12/05 05:17:40;;;;;;;21.42;15.68;;;;;;;;;;5083632;28;20438;-91
2022/12/05 05:20:26;;;;;;;19.42;15.10;;;;;;;;;;5087837;28;20432;-90
2022/12/05 05:23:01;;;;;;;19.88;15.25;;;;;;;;;;5092085;28;20766;-91
2022/12/05 05:25:27;;;;;;;18.02;14.40;;;;;;;;;;5114111;28;20412;-90
2022/12/05 05:27:59;;;;;;;20.15;15.80;;;;;;;;;;5100129;28;20386;-91
2022/12/05 05:30:28;;;;;;;19.85;14.80;;;;;;;;;;5114420;28;20376;-93
2022/12/05 05:32:54;;;;;;;19.38;15.00;;;;;;;;;;5104250;28;20368;-92
2022/12/05 05:35:30;;;;;;;17.97;14.90;;;;;;;;;;5114436;28;20455;-91
2022/12/05 05:37:57;;;;;;;19.05;15.02;;;;;;;;;;5093607;28;20384;-90
2022/12/05 05:40:23;;;;;;;19.17;15.00;;;;;;;;;;5103841;28;20746;-91
2022/12/05 05:42:49;;;;;;;17.20;14.70;;;;;;;;;;5096824;28;20387;-90
2022/12/05 05:45:16;;;;;;;19.50;15.48;;;;;;;;;;5107783;28;20851;-90
2022/12/05 05:47:42;;;;;;;20.23;15.10;;;;;;;;;;5099889;28;20843;-89
2022/12/05 05:50:08;;;;;;;18.00;14.73;;;;;;;;;;5107404;28;20389;-90
2022/12/05 05:52:35;;;;;;;20.35;14.63;;;;;;;;;;5108264;28;20373;-91
2022/12/05 05:55:02;;;;;;;18.60;15.60;;;;;;;;;;5108682;28;21186;-91
2022/12/05 05:57:33;;;;;;;20.25;15.30;;;;;;;;;;5105737;28;20382;-91
2022/12/05 05:59:59;;;;;;;18.70;13.27;;;;;;;;;;5102113;28;20378;-92
2022/12/05 06:02:28;;;;;;;18.02;13.95;;;;;;;;;;5111694;28;20383;-90
2022/12/05 06:05:12;;;;;;;15.88;13.52;;;;;;;;;;5102328;28;20400;-89
2022/12/05 06:07:52;;;;;;;17.77;14.30;;;;;;;;;;5093549;28;20946;-92
2022/12/05 06:10:28;;;;;;;17.55;14.43;;;;;;;;;;5095872;28;20388;-91
2022/12/05 06:15:54;;;;;;;17.10;14.18;;;;;;;;;;5409081;22;20557;-93
2022/12/05 06:48:37;;;;;;;30.33;20.02;;;;;;;;;;4996235;28;20394;-89
2022/12/05 06:51:03;;;;;;;24.30;17.73;;;;;;;;;;5018139;28;20427;-90
2022/12/05 06:53:29;;;;;;;29.02;19.73;;;;;;;;;;5018273;28;20426;-90
2022/12/05 06:56:18;;;;;;;21.58;16.65;;;;;;;;;;5033224;28;20424;-90
2022/12/05 06:58:48;;;;;;;24.80;18.45;;;;;;;;;;5032310;28;20447;-90
2022/12/05 07:04:07;;;;;;;20.98;17.70;;;;;;;;;;5028731;28;20836;-91
2022/12/05 07:06:37;;;;;;;25.08;19.27;;;;;;;;;;5030123;28;20427;-91
2022/12/05 07:09:03;;;;;;;23.42;17.55;;;;;;;;;;5030723;28;20856;-92
2022/12/05 07:11:30;;;;;;;21.35;16.70;;;;;;;;;;5033245;28;20394;-92
2022/12/05 07:13:56;;;;;;;21.52;17.58;;;;;;;;;;5030740;28;20466;-91
2022/12/05 07:16:25;;;;;;;20.30;16.37;;;;;;;;;;5035241;28;20468;-91
2022/12/05 07:18:55;;;;;;;91.75;61.75;;;;;;;;;;5010184;28;20920;-90
2022/12/05 07:21:24;;;;;;;39.78;29.05;;;;;;;;;;5008145;28;20410;-91
2022/12/05 07:23:50;;;;;;;31.98;21.88;;;;;;;;;;4998889;28;20417;-91
2022/12/05 07:26:21;;;;;;;35.55;26.70;;;;;;;;;;5031981;28;20383;-90
2022/12/05 07:28:47;;;;;;;38.45;26.35;;;;;;;;;;5022433;28;20407;-90
2022/12/05 07:31:15;;;;;;;34.95;25.55;;;;;;;;;;5015297;28;20387;-91
2022/12/05 07:33:41;;;;;;;30.75;22.52;;;;;;;;;;5032456;28;20395;-90
2022/12/05 07:36:11;;;;;;;21.70;16.92;;;;;;;;;;5029787;28;20388;-90
2022/12/05 07:38:38;;;;;;;21.27;17.70;;;;;;;;;;5019696;28;20492;-89
2022/12/05 07:41:06;;;;;;;27.83;21.42;;;;;;;;;;5011177;28;20388;-90
2022/12/05 07:43:33;;;;;;;27.42;20.40;;;;;;;;;;5016916;28;20386;-90
2022/12/05 07:46:08;;;;;;;22.97;18.50;;;;;;;;;;5021837;28;20416;-89
2022/12/05 07:48:34;;;;;;;19.35;16.70;;;;;;;;;;5023930;28;20459;-90
2022/12/05 07:51:01;;;;;;;18.95;15.80;;;;;;;;;;5028924;28;20387;-88
2022/12/05 07:53:27;;;;;;;22.90;16.70;;;;;;;;;;5029748;28;20450;-88
2022/12/05 07:55:53;;;;;;;21.17;16.88;;;;;;;;;;5033249;28;20548;-88
2022/12/05 07:58:19;;;;;;;20.33;15.67;;;;;;;;;;5034857;28;20440;-88
2022/12/05 08:00:45;;;;;;;19.17;15.82;;;;;;;;;;5032272;28;20466;-88
2022/12/05 08:03:11;;;;;;;19.15;15.48;;;;;;;;;;5016805;28;20467;-87
2022/12/05 08:05:37;;;;;;;19.52;16.08;;;;;;;;;;5016453;28;20423;-90
2022/12/05 08:08:03;;;;;;;20.77;15.63;;;;;;;;;;5031716;28;20390;-88
2022/12/05 08:10:29;;;;;;;19.17;15.63;;;;;;;;;;5032216;28;20394;-87
2022/12/05 08:12:55;;;;;;;18.80;15.07;;;;;;;;;;5032252;28;20372;-86
2022/12/05 08:15:21;;;;;;;18.30;15.23;;;;;;;;;;5032294;28;20928;-88
2022/12/05 08:17:47;;;;;;;19.02;16.13;;;;;;;;;;5031955;28;20422;-87
2022/12/05 08:20:13;;;;;;;17.95;15.32;;;;;;;;;;5031977;28;20428;-87
2022/12/05 08:22:39;;;;;;;19.45;15.88;;;;;;;;;;5029782;28;20933;-86
2022/12/05 08:25:05;;;;;;;19.35;16.27;;;;;;;;;;5031907;28;20974;-86
2022/12/05 08:27:31;;;;;;;19.98;15.75;;;;;;;;;;5031892;28;20535;-88
2022/12/05 08:29:57;;;;;;;19.85;15.65;;;;;;;;;;5032050;28;20483;-88
2022/12/05 08:32:23;;;;;;;28.08;20.02;;;;;;;;;;5026712;28;20391;-87
2022/12/05 08:34:50;;;;;;;29.13;20.63;;;;;;;;;;5031981;28;20398;-87
2022/12/05 08:37:16;;;;;;;28.65;19.52;;;;;;;;;;5032067;28;20477;-87
2022/12/05 08:39:41;;;;;;;25.40;18.08;;;;;;;;;;5031524;28;20419;-87
2022/12/05 08:42:07;;;;;;;20.90;16.77;;;;;;;;;;5031725;28;20401;-87
2022/12/05 08:44:33;;;;;;;21.10;17.42;;;;;;;;;;5030521;28;20419;-87
2022/12/05 08:46:59;;;;;;;23.67;17.40;;;;;;;;;;5032029;28;20425;-88
2022/12/05 08:49:25;;;;;;;20.15;16.10;;;;;;;;;;5030735;28;20522;-88
2022/12/05 08:51:51;;;;;;;19.55;15.55;;;;;;;;;;5031719;28;20375;-87
2022/12/05 08:54:17;;;;;;;17.15;14.95;;;;;;;;;;5035181;28;20578;-87
2022/12/05 08:56:43;;;;;;;18.35;15.27;;;;;;;;;;5032474;28;20860;-86
2022/12/05 08:59:10;;;;;;;18.27;14.02;;;;;;;;;;5031846;28;20867;-86
2022/12/05 09:01:37;;;;;;;18.83;14.90;;;;;;;;;;5034535;28;20391;-87
2022/12/05 09:04:04;;;;;;;16.65;13.73;;;;;;;;;;5031190;28;20411;-87
2022/12/05 09:06:31;;;;;;;17.20;14.38;;;;;;;;;;5034672;28;20477;-88
2022/12/05 09:09:01;;;;;;;16.02;13.90;;;;;;;;;;5034603;28;20430;-88
2022/12/05 09:11:28;;;;;;;18.58;14.88;;;;;;;;;;5033791;28;20444;-88
2022/12/05 09:13:55;;;;;;;21.30;15.60;;;;;;;;;;5010690;28;20736;-87
2022/12/05 09:16:23;;;;;;;18.87;14.27;;;;;;;;;;5033336;28;20896;-88
2022/12/05 09:18:50;;;;;;;14.90;12.93;;;;;;;;;;5032848;28;20512;-88
2022/12/05 09:21:26;;;;;;;16.08;13.65;;;;;;;;;;5033924;28;20462;-90
2022/12/05 09:23:52;;;;;;;15.90;13.55;;;;;;;;;;5030603;28;20908;-88
2022/12/05 09:26:22;;;;;;;17.33;12.90;;;;;;;;;;5034822;28;20406;-90
2022/12/05 09:28:48;;;;;;;14.63;12.88;;;;;;;;;;5020098;28;21032;-87
2022/12/05 09:31:15;;;;;;;13.93;12.38;;;;;;;;;;5033806;28;20387;-87
2022/12/05 09:33:41;;;;;;;13.50;11.67;;;;;;;;;;5034803;28;20456;-88
2022/12/05 09:36:11;;;;;;;12.10;10.57;;;;;;;;;;5035878;28;20474;-88
2022/12/05 09:38:37;;;;;;;11.05;9.88;;;;;;;;;;5033032;28;20443;-88
2022/12/05 09:41:12;;;;;;;14.75;12.40;;;;;;;;;;5034274;28;20403;-88
2022/12/05 09:43:40;;;;;;;16.73;13.60;;;;;;;;;;5034214;28;20981;-87
2022/12/05 09:46:14;;;;;;;16.52;13.90;;;;;;;;;;5034307;28;20394;-88
2022/12/05 09:48:40;;;;;;;16.27;14.57;;;;;;;;;;5034230;28;20448;-88
2022/12/05 09:51:09;;;;;;;16.30;14.17;;;;;;;;;;5032336;28;20423;-89
2022/12/05 09:53:37;;;;;;;18.65;15.70;;;;;;;;;;5016148;28;20389;-88
2022/12/05 09:56:12;;;;;;;17.35;15.48;;;;;;;;;;5031165;28;20413;-89
2022/12/05 09:58:49;;;;;;;17.98;15.00;;;;;;;;;;5031095;28;20474;-89
2022/12/05 10:01:18;;;;;;;21.75;16.25;;;;;;;;;;5015720;28;20383;-89
2022/12/05 10:03:48;;;;;;;19.55;15.93;;;;;;;;;;5029881;28;20386;-88
2022/12/05 10:06:14;;;;;;;18.23;14.70;;;;;;;;;;5014861;28;20864;-88
2022/12/05 10:08:55;;;;;;;16.20;13.98;;;;;;;;;;5032880;28;20399;-88
2022/12/05 10:11:40;;;;;;;17.20;14.75;;;;;;;;;;5032273;28;20436;-87
2022/12/05 10:14:06;;;;;;;14.90;13.00;;;;;;;;;;5031469;28;20466;-88
2022/12/05 10:16:34;;;;;;;17.60;14.57;;;;;;;;;;5031143;28;21608;-87
2022/12/05 10:19:06;;;;;;;15.73;12.77;;;;;;;;;;5029366;28;20478;-88
2022/12/05 10:21:44;;;;;;;14.45;12.93;;;;;;;;;;5007230;28;20387;-87
2022/12/05 10:24:13;;;;;;;13.25;11.57;;;;;;;;;;5025086;28;20423;-87
2022/12/05 10:26:44;;;;;;;12.77;11.38;;;;;;;;;;4999365;28;20405;-87
2022/12/05 10:29:19;;;;;;;14.57;12.30;;;;;;;;;;5016705;28;20386;-87
2022/12/05 10:31:46;;;;;;;13.95;12.45;;;;;;;;;;5018209;28;20435;-88
2022/12/05 10:34:33;;;;;;;15.60;13.13;;;;;;;;;;5014636;28;20392;-88
2022/12/05 10:37:15;;;;;;;15.55;12.43;;;;;;;;;;5013500;28;20475;-88
2022/12/05 10:39:41;;;;;;;14.38;12.88;;;;;;;;;;4995257;28;20790;-87
2022/12/05 10:42:12;;;;;;;16.33;13.73;;;;;;;;;;5014900;28;20396;-87
2022/12/05 10:44:38;;;;;;;18.40;16.00;;;;;;;;;;5013806;28;20978;-88
2022/12/05 10:47:05;;;;;;;11.77;9.13;;;;;;;;;;5020467;28;20907;-89
2022/12/05 10:49:32;;;;;;;10.07;9.07;;;;;;;;;;5033326;28;20422;-87
2022/12/05 10:51:59;;;;;;;9.52;8.52;;;;;;;;;;5031672;28;20457;-87
2022/12/05 10:54:28;;;;;;;10.77;9.77;;;;;;;;;;5033476;28;20852;-88
2022/12/05 10:56:54;;;;;;;11.20;10.07;;;;;;;;;;5032621;28;20395;-88
2022/12/05 10:59:22;;;;;;;11.55;10.38;;;;;;;;;;5033209;28;20445;-87
2022/12/05 11:01:50;;;;;;;11.82;10.57;;;;;;;;;;5031684;28;20434;-88
2022/12/05 11:04:27;;;;;;;11.75;10.65;;;;;;;;;;5033010;28;20887;-89
2022/12/05 11:06:57;;;;;;;11.30;10.20;;;;;;;;;;5027307;28;20404;-89
2022/12/05 11:09:25;;;;;;;11.52;10.43;;;;;;;;;;5032997;28;20391;-87
2022/12/05 11:12:20;;;;;;;13.52;12.00;;;;;;;;;;5033062;28;20387;-89
2022/12/05 11:15:04;;;;;;;10.90;9.77;;;;;;;;;;5024050;28;20399;-88
2022/12/05 11:17:35;;;;;;;9.35;8.50;;;;;;;;;;5033013;28;20805;-91
2022/12/05 11:20:02;;;;;;;9.10;8.20;;;;;;;;;;5025133;28;20919;-87
2022/12/05 11:22:34;;;;;;;8.75;7.95;;;;;;;;;;5017201;28;20429;-87
2022/12/05 11:25:00;;;;;;;9.43;8.52;;;;;;;;;;5032658;28;20469;-88
2022/12/05 11:27:28;;;;;;;11.98;10.80;;;;;;;;;;5032562;28;20414;-87
2022/12/05 11:30:02;;;;;;;9.85;8.95;;;;;;;;;;5032454;28;20391;-87
2022/12/05 11:32:29;;;;;;;8.18;7.47;;;;;;;;;;5027612;28;20783;-86
2022/12/05 11:34:55;;;;;;;8.82;7.93;;;;;;;;;;5032412;28;20383;-88
2022/12/05 11:37:24;;;;;;;8.50;7.70;;;;;;;;;;5032633;28;20410;-86
2022/12/05 11:39:51;;;;;;;12.05;10.98;;;;;;;;;;5033461;28;20411;-88
2022/12/05 11:42:34;;;;;;;8.93;8.13;;;;;;;;;;5032666;28;20395;-86
2022/12/05 11:45:09;;;;;;;9.38;8.48;;;;;;;;;;5031926;28;20541;-88
2022/12/05 11:47:47;;;;;;;8.40;7.70;;;;;;;;;;5030499;28;20883;-88
2022/12/05 11:50:13;;;;;;;8.30;7.60;;;;;;;;;;5032167;28;20391;-88
2022/12/05 11:52:51;;;;;;;8.80;7.97;;;;;;;;;;5015608;28;20410;-87
2022/12/05 11:55:26;;;;;;;9.15;8.32;;;;;;;;;;5014682;28;20395;-88
2022/12/05 11:57:51;;;;;;;8.02;7.30;;;;;;;;;;5014466;28;20574;-88
2022/12/05 12:00:30;;;;;;;7.60;6.97;;;;;;;;;;5032317;28;20403;-88
2022/12/05 12:02:59;;;;;;;7.60;6.90;;;;;;;;;;5014248;28;20531;-87
2022/12/05 12:05:34;;;;;;;8.20;7.40;;;;;;;;;;5031187;28;20877;-90
2022/12/05 12:08:09;;;;;;;8.53;7.73;;;;;;;;;;5030602;28;20395;-87
2022/12/05 12:10:35;;;;;;;8.93;8.13;;;;;;;;;;5020367;28;20399;-87
2022/12/05 12:13:20;;;;;;;9.15;7.90;;;;;;;;;;5019444;28;20433;-87
2022/12/05 12:15:52;;;;;;;6.75;6.25;;;;;;;;;;5031330;28;20411;-89
2022/12/05 12:18:21;;;;;;;7.67;7.03;;;;;;;;;;5033132;28;20478;-87
2022/12/05 12:21:05;;;;;;;8.50;7.75;;;;;;;;;;5018545;28;20383;-89
2022/12/05 12:23:58;;;;;;;10.35;9.45;;;;;;;;;;5031919;28;20426;-87
2022/12/05 12:26:39;;;;;;;9.10;8.40;;;;;;;;;;5030519;28;20445;-87
2022/12/05 12:29:11;;;;;;;10.57;9.68;;;;;;;;;;5034292;28;20387;-88
2022/12/05 12:31:56;;;;;;;8.77;7.90;;;;;;;;;;5034910;28;20954;-88
2022/12/05 12:34:37;;;;;;;10.32;9.48;;;;;;;;;;5027458;28;20398;-89
2022/12/05 12:37:19;;;;;;;11.35;9.98;;;;;;;;;;5018371;28;20524;-89
2022/12/05 12:39:52;;;;;;;11.57;10.50;;;;;;;;;;5033610;28;20428;-86
2022/12/05 12:42:18;;;;;;;12.60;11.40;;;;;;;;;;5035667;28;20434;-88
2022/12/05 12:44:44;;;;;;;14.20;12.20;;;;;;;;;;5035501;28;20801;-90
2022/12/05 12:47:15;;;;;;;14.27;12.65;;;;;;;;;;5022376;28;20398;-87
2022/12/05 12:49:44;;;;;;;15.50;13.77;;;;;;;;;;5023470;28;20792;-87
2022/12/05 12:52:15;;;;;;;13.95;12.55;;;;;;;;;;5035942;28;20391;-88
2022/12/05 12:54:49;;;;;;;14.27;13.00;;;;;;;;;;5025692;28;20531;-87
2022/12/05 12:57:38;;;;;;;12.10;11.00;;;;;;;;;;5016339;28;20389;-86
2022/12/05 13:00:11;;;;;;;13.27;11.98;;;;;;;;;;5020834;28;20426;-87
2022/12/05 13:02:46;;;;;;;12.05;10.85;;;;;;;;;;5035462;28;20387;-87
2022/12/05 13:05:21;;;;;;;8.05;7.35;;;;;;;;;;5035175;28;20422;-88
2022/12/05 13:07:53;;;;;;;6.50;6.00;;;;;;;;;;5024869;28;20881;-87
2022/12/05 13:10:31;;;;;;;6.63;6.03;;;;;;;;;;5031669;28;20449;-86
2022/12/05 13:12:59;;;;;;;6.00;5.50;;;;;;;;;;5035193;28;20418;-87
2022/12/05 13:15:31;;;;;;;6.47;5.88;;;;;;;;;;5034990;28;20449;-87
2022/12/05 13:17:57;;;;;;;7.22;5.70;;;;;;;;;;5034954;28;20387;-86
2022/12/05 13:20:26;;;;;;;8.60;6.60;;;;;;;;;;5034938;28;20876;-86
2022/12/05 13:22:53;;;;;;;6.32;5.82;;;;;;;;;;5035005;28;20436;-86
2022/12/05 13:25:21;;;;;;;7.07;6.40;;;;;;;;;;5034980;28;20876;-86
2022/12/05 13:27:55;;;;;;;7.40;6.75;;;;;;;;;;5034540;28;20419;-86
2022/12/05 13:30:21;;;;;;;6.95;6.40;;;;;;;;;;5026546;28;20394;-87
2022/12/05 13:32:54;;;;;;;8.23;7.43;;;;;;;;;;5034414;28;20724;-86
2022/12/05 13:43:59;;;;;;;7.03;6.47;;;;;;;;;;5051494;28;20384;-86
2022/12/05 13:46:30;;;;;;;6.85;6.35;;;;;;;;;;5054118;28;20472;-88
2022/12/05 13:49:02;;;;;;;6.45;5.95;;;;;;;;;;5050922;28;20377;-87
2022/12/05 13:51:32;;;;;;;7.63;6.93;;;;;;;;;;5054435;28;20417;-87
2022/12/05 13:54:00;;;;;;;8.23;7.43;;;;;;;;;;5027785;28;20442;-90
2022/12/05 13:56:45;;;;;;;6.43;5.93;;;;;;;;;;5013827;28;20418;-90
2022/12/05 13:59:11;;;;;;;6.28;5.78;;;;;;;;;;5011165;28;20497;-90
2022/12/05 14:01:41;;;;;;;7.17;6.57;;;;;;;;;;5013465;28;20477;-91
2022/12/05 14:04:22;;;;;;;6.57;6.07;;;;;;;;;;5026285;28;20503;-90
2022/12/05 14:06:47;;;;;;;5.80;5.40;;;;;;;;;;5027585;28;20470;-91
2022/12/05 14:09:16;;;;;;;5.85;5.38;;;;;;;;;;5033776;28;20876;-90
2022/12/05 14:12:01;;;;;;;6.95;6.45;;;;;;;;;;5033961;28;20393;-89
2022/12/05 14:15:05;;;;;;;6.32;5.82;;;;;;;;;;5023829;28;20407;-91
2022/12/05 14:17:44;;;;;;;6.53;6.03;;;;;;;;;;4984240;28;20396;-90
2022/12/05 14:20:25;;;;;;;5.50;5.10;;;;;;;;;;4955308;28;20399;-92
2022/12/05 14:22:54;;;;;;;6.43;5.93;;;;;;;;;;4973012;28;20400;-90
2022/12/05 14:25:26;;;;;;;6.65;6.13;;;;;;;;;;4971767;28;20522;-91
2022/12/05 14:28:13;;;;;;;7.28;6.63;;;;;;;;;;4972536;28;20456;-89
2022/12/05 14:30:51;;;;;;;7.32;6.72;;;;;;;;;;4972588;28;20426;-90
2022/12/05 14:33:17;;;;;;;7.30;6.70;;;;;;;;;;4972071;28;20445;-91
2022/12/05 14:35:49;;;;;;;7.25;6.65;;;;;;;;;;4972366;28;20431;-91
2022/12/05 14:38:21;;;;;;;7.70;7.00;;;;;;;;;;4972695;28;20468;-91
2022/12/05 14:40:47;;;;;;;7.38;6.68;;;;;;;;;;4972582;28;20404;-91
2022/12/05 14:43:30;;;;;;;6.40;5.90;;;;;;;;;;4956183;28;20427;-90
2022/12/05 14:45:59;;;;;;;6.70;6.20;;;;;;;;;;4972558;28;20518;-89
2022/12/05 14:48:31;;;;;;;6.55;6.05;;;;;;;;;;5010451;28;20393;-90
2022/12/05 14:50:58;;;;;;;6.90;6.20;;;;;;;;;;5053147;28;20805;-91
2022/12/05 14:53:29;;;;;;;6.18;5.72;;;;;;;;;;5025531;28;20963;-90
2022/12/05 14:55:58;;;;;;;6.53;6.03;;;;;;;;;;5032200;28;20441;-90
2022/12/05 14:58:36;;;;;;;6.47;5.97;;;;;;;;;;5031660;28;20437;-90
2022/12/05 15:01:06;;;;;;;6.30;5.80;;;;;;;;;;5033131;28;20425;-91
2022/12/05 15:03:34;;;;;;;6.50;5.90;;;;;;;;;;5032934;28;20375;-90
2022/12/05 15:06:03;;;;;;;6.35;5.85;;;;;;;;;;5032417;28;20426;-89
2022/12/05 15:08:31;;;;;;;6.20;5.70;;;;;;;;;;5033119;28;20383;-90
2022/12/05 15:10:57;;;;;;;7.03;6.43;;;;;;;;;;5031531;28;20384;-91
2022/12/05 15:13:27;;;;;;;7.20;6.60;;;;;;;;;;5030687;28;20402;-91
2022/12/05 15:16:28;;;;;;;12.77;11.57;;;;;;;;;;5002450;28;20390;-91
2022/12/05 15:18:57;;;;;;;6.53;5.93;;;;;;;;;;4995393;28;20414;-90
2022/12/05 15:21:38;;;;;;;6.07;5.57;;;;;;;;;;5022155;28;20408;-89
2022/12/05 15:24:05;;;;;;;6.57;6.07;;;;;;;;;;5001537;28;20454;-92
2022/12/05 15:26:47;;;;;;;7.15;6.47;;;;;;;;;;5016309;28;20954;-89
2022/12/05 15:29:24;;;;;;;6.30;5.80;;;;;;;;;;5027067;28;20924;-91
2022/12/05 15:32:06;;;;;;;6.57;5.97;;;;;;;;;;5025412;28;20957;-90
2022/12/05 15:34:35;;;;;;;11.82;8.70;;;;;;;;;;5010287;28;20494;-91
2022/12/05 15:37:16;;;;;;;9.88;8.48;;;;;;;;;;5031264;28;20383;-90
2022/12/05 15:40:02;;;;;;;8.00;7.20;;;;;;;;;;5017901;28;20395;-89
2022/12/05 15:42:42;;;;;;;7.97;6.90;;;;;;;;;;5031721;28;20460;-90
2022/12/05 15:45:14;;;;;;;8.27;6.72;;;;;;;;;;5012217;28;20820;-89
2022/12/05 15:47:41;;;;;;;9.45;8.55;;;;;;;;;;5031045;28;20415;-89
2022/12/05 15:50:14;;;;;;;16.73;10.93;;;;;;;;;;5032169;28;20383;-90
2022/12/05 15:52:42;;;;;;;12.23;9.13;;;;;;;;;;5014101;28;20952;-89
2022/12/05 15:55:12;;;;;;;9.52;7.97;;;;;;;;;;5019916;28;20392;-91
2022/12/05 15:57:42;;;;;;;8.27;7.47;;;;;;;;;;5033716;28;20394;-90
2022/12/05 16:00:15;;;;;;;8.68;7.55;;;;;;;;;;5014350;28;20899;-91
2022/12/05 16:03:04;;;;;;;7.43;6.72;;;;;;;;;;5018614;28;20428;-89
2022/12/05 16:05:30;;;;;;;9.48;7.85;;;;;;;;;;5031919;28;20531;-90
2022/12/05 16:07:56;;;;;;;7.40;6.78;;;;;;;;;;5020210;28;20786;-89
2022/12/05 16:10:23;;;;;;;7.88;7.18;;;;;;;;;;5032550;28;20391;-89
2022/12/05 16:12:49;;;;;;;7.50;6.90;;;;;;;;;;5030828;28;20430;-88
2022/12/05 16:15:27;;;;;;;7.70;7.10;;;;;;;;;;5029199;28;20441;-89
2022/12/05 16:17:57;;;;;;;7.90;7.30;;;;;;;;;;5028477;28;20379;-90
2022/12/05 16:20:27;;;;;;;7.78;7.18;;;;;;;;;;5031807;28;20393;-90
2022/12/05 16:23:00;;;;;;;8.15;7.35;;;;;;;;;;5019965;28;20764;-91
2022/12/05 16:25:28;;;;;;;8.25;7.45;;;;;;;;;;5031284;28;20510;-90
2022/12/05 16:28:01;;;;;;;7.30;6.60;;;;;;;;;;5024132;28;20849;-91
2022/12/05 16:30:28;;;;;;;8.10;7.43;;;;;;;;;;5032334;28;20822;-92
2022/12/05 16:33:14;;;;;;;7.50;6.80;;;;;;;;;;5016143;28;20741;-89
2022/12/05 16:35:44;;;;;;;8.05;7.30;;;;;;;;;;5013641;28;20398;-89
2022/12/05 16:38:13;;;;;;;9.15;8.32;;;;;;;;;;5030174;28;20456;-89
2022/12/05 16:40:45;;;;;;;10.48;9.48;;;;;;;;;;5029404;28;20964;-88
2022/12/05 16:43:23;;;;;;;11.32;10.25;;;;;;;;;;5012548;28;20523;-88
2022/12/05 16:45:50;;;;;;;12.02;11.02;;;;;;;;;;5031535;28;20411;-89
2022/12/05 16:48:19;;;;;;;11.77;10.68;;;;;;;;;;5014357;28;20391;-89
2022/12/05 16:50:45;;;;;;;12.68;11.32;;;;;;;;;;5032144;28;20424;-88
2022/12/05 16:53:14;;;;;;;13.35;12.05;;;;;;;;;;5030102;28;20423;-90
2022/12/05 16:55:41;;;;;;;13.00;11.80;;;;;;;;;;5022485;28;20377;-90
2022/12/05 16:58:10;;;;;;;14.50;13.10;;;;;;;;;;5051679;28;20390;-90
2022/12/05 17:00:36;;;;;;;22.77;19.60;;;;;;;;;;5027365;28;20951;-89
2022/12/05 17:03:03;;;;;;;27.35;20.95;;;;;;;;;;5031878;28;20740;-89
2022/12/05 17:05:29;;;;;;;20.88;18.77;;;;;;;;;;5030063;28;20503;-89
2022/12/05 17:07:55;;;;;;;18.60;16.80;;;;;;;;;;5031492;28;20395;-90
2022/12/05 17:10:21;;;;;;;15.73;14.35;;;;;;;;;;5030563;28;20391;-88
2022/12/05 17:12:47;;;;;;;14.52;13.32;;;;;;;;;;5002891;28;20393;-88
2022/12/05 17:15:16;;;;;;;13.73;12.43;;;;;;;;;;5019409;28;20399;-88
2022/12/05 17:17:42;;;;;;;13.90;12.70;;;;;;;;;;5031848;28;20486;-90
2022/12/05 17:20:08;;;;;;;14.55;13.25;;;;;;;;;;5020672;28;20446;-88
2022/12/05 17:22:34;;;;;;;14.70;13.30;;;;;;;;;;5034739;28;20477;-88
2022/12/05 17:25:01;;;;;;;14.95;13.57;;;;;;;;;;5028364;28;20514;-89
2022/12/05 17:27:27;;;;;;;13.57;12.20;;;;;;;;;;5017850;28;20379;-87
2022/12/05 17:29:53;;;;;;;20.13;18.23;;;;;;;;;;5034463;28;20383;-87
2022/12/05 17:32:19;;;;;;;14.25;12.95;;;;;;;;;;5034162;28;20458;-88
2022/12/05 17:34:45;;;;;;;14.73;13.45;;;;;;;;;;5034544;28;20441;-88
2022/12/05 17:37:11;;;;;;;13.57;12.43;;;;;;;;;;5016611;28;20430;-87
2022/12/05 17:39:37;;;;;;;13.70;12.40;;;;;;;;;;5034840;28;20395;-89
2022/12/05 17:42:03;;;;;;;13.77;12.43;;;;;;;;;;5034381;28;20459;-87
2022/12/05 17:44:29;;;;;;;14.60;13.10;;;;;;;;;;5034226;28;20454;-88
2022/12/05 17:46:55;;;;;;;12.25;11.15;;;;;;;;;;5034866;28;20394;-88
2022/12/05 17:49:21;;;;;;;14.30;12.63;;;;;;;;;;5034933;28;20995;-88
2022/12/05 17:51:47;;;;;;;13.13;11.75;;;;;;;;;;5036915;28;20387;-88
2022/12/05 17:54:13;;;;;;;12.32;11.25;;;;;;;;;;5044530;28;20387;-88
2022/12/05 17:56:39;;;;;;;12.67;11.50;;;;;;;;;;5032381;28;20404;-88
2022/12/05 17:59:05;;;;;;;12.43;11.35;;;;;;;;;;5022465;28;20858;-88
2022/12/05 18:01:31;;;;;;;12.85;11.80;;;;;;;;;;5027969;28;20387;-88
2022/12/05 18:03:57;;;;;;;11.65;10.65;;;;;;;;;;5033916;28;20395;-84
2022/12/05 18:06:25;;;;;;;12.90;11.80;;;;;;;;;;5028662;28;20431;-85
2022/12/05 18:08:51;;;;;;;12.50;11.40;;;;;;;;;;5021638;28;20402;-83
2022/12/05 18:11:17;;;;;;;11.98;10.98;;;;;;;;;;5022121;28;20391;-88
2022/12/05 18:13:43;;;;;;;12.32;11.23;;;;;;;;;;5009977;28;20412;-87
2022/12/05 18:16:09;;;;;;;13.03;11.93;;;;;;;;;;5023569;28;20410;-87
2022/12/05 18:18:35;;;;;;;13.02;11.82;;;;;;;;;;5029770;28;20398;-87
2022/12/05 18:21:08;;;;;;;11.70;10.77;;;;;;;;;;5031971;28;20449;-89
2022/12/05 18:23:35;;;;;;;12.48;11.38;;;;;;;;;;5016077;28;20391;-87
2022/12/05 18:26:01;;;;;;;11.52;10.57;;;;;;;;;;5016411;28;20477;-87
2022/12/05 18:28:27;;;;;;;11.48;10.48;;;;;;;;;;5031808;28;20430;-88
2022/12/05 18:31:12;;;;;;;11.47;10.47;;;;;;;;;;5014575;28;20400;-87
2022/12/05 18:33:38;;;;;;;12.32;11.32;;;;;;;;;;5017048;28;20393;-88
2022/12/05 18:36:08;;;;;;;13.10;11.82;;;;;;;;;;5032635;28;20921;-88
2022/12/05 18:38:37;;;;;;;12.82;11.73;;;;;;;;;;5032786;28;20391;-88
2022/12/05 18:41:04;;;;;;;12.73;11.63;;;;;;;;;;5032890;28;20760;-87
2022/12/05 18:43:31;;;;;;;11.80;10.60;;;;;;;;;;5016316;28;20403;-88
2022/12/05 18:45:58;;;;;;;11.53;10.47;;;;;;;;;;5032336;28;20949;-88
2022/12/05 18:48:24;;;;;;;10.75;9.85;;;;;;;;;;5032411;28;20458;-88
2022/12/05 18:50:50;;;;;;;10.50;9.60;;;;;;;;;;5032226;28;20379;-88
2022/12/05 18:53:16;;;;;;;10.98;9.98;;;;;;;;;;5032340;28;20462;-88
2022/12/05 18:55:42;;;;;;;11.55;10.38;;;;;;;;;;5031959;28;20718;-87
2022/12/05 18:58:08;;;;;;;11.13;10.13;;;;;;;;;;5015646;28;20438;-87
2022/12/05 19:00:34;;;;;;;12.00;10.87;;;;;;;;;;5032169;28;20394;-88
2022/12/05 19:03:00;;;;;;;12.35;11.27;;;;;;;;;;5032124;28;20406;-88
2022/12/05 19:05:26;;;;;;;13.63;12.38;;;;;;;;;;5017175;28;20920;-88
2022/12/05 19:07:53;;;;;;;15.23;13.65;;;;;;;;;;5032215;28;20383;-88